Lancaster Airport
KLNS : now visible

Airfield :











YOU CAN JOIN US ON...

 
LOGIN :

Register | Disclaimer

   EN    FR    IT 

 









Legend :    VFR   Marginal VFR   IFR   Intensive IFR   Very Intensive IFR
Visi :
Ceiling :
>= 8 km
>= 3000ft
5 to 8 km
1000 to 3000 ft
1500m to 5 km
500 to 1000 ft
800 to 1500m
200 to 500 ft
< 800m
< 200 ft
Symbols :   Thunderstorms  Fog  Heavy snow  Heavy precipitations  Wind > 20 kt






- Airport Elevation : 403 ft
- IATA code : LNS


KLNS - Lancaster

CURRENT METAR :
  • 271753Z 08003KT 2 1/2SM -RA BR OVC013 08/07 A2965 RMK AO2 SLP042 P0006 60016 T00830072 10094 20039 58049

EXPIRED METARs :
  • 271653Z 12005KT 5SM -RA BR OVC016 08/07 A2969 RMK AO2 SLP056 P0005 T00830067
  • 271619Z 17006KT 4SM -RA BR OVC018 08/06 A2974 RMK AO2 PRESFR P0004 T00830061
  • 271553Z 20006KT 2SM RA BKN019 BKN024 OVC037 08/05 A2978 RMK AO2 VIS 1 3/4V3 RAB06 SLP086 P0005 T00830050

TAF KLNS
Valid from the 27 at 18:00 until the 28 at 18:00 UTC


271727Z 2718/2818 12005KT 5SM -RA BR OVC016 WS020/20050KT
FM272000 15007KT 4SM -RA BR OVC007 WS020/22045KT
FM280400 27012G24KT P6SM VCSH OVC030
FM280900 29010KT P6SM OVC025
KZNY FIR / North America



MET'MAP, your aeronautical weather chart ! - Copyright ORBIFLY December 2007 - Disclaimer

ORBIFLY MET'MAP TEAM :

Programming & Development : Alexandra Zaïnal
Original concept : Baudouin d'Aumeries
Technical & hardware support : Manuel Goepfert
Assistance : Marc-Olivier Méhu




SOURCES & CREDITS :

   NOAA       Earth
Advisory